CANO2: Clear Boggy Creek abv Caney Creek nr Caney, OK

Data processed at Wed Jun 19 2019 23:50


All information presented herein is the property of the government of the United States of America and may be revised or deleted at any time without prior notice.
Dissemination of this information without the expressed written consent of the Public Affairs Office, Tulsa District U.S. Army Corps of Engineers is strictly prohibited.
These data are gathered electronically and, as presented, have not undergone any form of quality control. These data are not guaranteed to be valid or correct.
Go to home page.
Go to station list.
Go to home page.

Upstream stations:

Downstream station:
Previous Day
Next Day
Current Day
    
SHEF ID:       CANO2     Clear Boggy Creek abv Caney Cree
STATION TYPE:  
Regulating: Stage =    19.00, Flow =     2600

                STAGE  RIV-FLOW  BAT-LOAD
                   ft       cfs      volt
              Ccp-Rev   Ccp-Rev   Ccp-Rev
(US/Central)
06/19 00:00     11.62       294     12.77
06/19 01:00     11.57       285     12.77
06/19 02:00     11.56       283     12.71
06/19 03:00     11.54       280     12.71
06/19 04:00     11.74       316     12.71
06/19 05:00     11.93       355     12.71
06/19 06:00     12.16       402     12.65
06/19 07:00     12.34       441     12.71
06/19 08:00     12.57       493     12.89
06/19 09:00     12.94       584     13.53
06/19 10:00     13.36       696     13.65
06/19 11:00     13.82       826     13.42
06/19 12:00     14.39      1010     13.30
06/19 13:00     14.90      1170     13.24
06/19 14:00     15.30      1300     13.24
06/19 15:00     15.55      1390     13.12
06/19 16:00     15.75      1450     13.12
06/19 17:00     15.90      1500     13.00
06/19 18:00     16.03      1550     13.00
06/19 19:00     16.13      1580     13.00
06/19 20:00     16.19      1600     13.07
06/19 21:00     16.21      1610     12.89
06/19 22:00     16.20      1610     12.83
06/19 23:00      ----      ----      ----